Saltillo, PA (17253)

5:52 PM EDT on May 04, 2015 (GMT -0400)
Three Springs, PA | | Change Station
CLOSE
Current Station
Personal Weather Station
Location: Three Springs, PA
Elevation: 807 ft
Nearby Weather Stations

Elev 807 ft 40.21 °N, 77.96 °W | Updated 17 seconds ago

Partly Cloudy
Partly Cloudy
86.7 °F
Feels Like 83 °F
N
0.0
Wind Variable Wind from SSW
Gusts 0.0 mph

Today
High -- | Low -- °F
--% Chance of Precip.
Yesterday
High -- | Low -- °F
Precip. -- in
6:08 AM 8:09 PM
Waxing Gibbous, 99% visible
Pressure 30.13 in
Visibility 10.0 miles
Clouds Mostly Cloudy 9000 ft
Heat Index 83 °F
Dew Point 42 °F
Humidity 21%
Rainfall 0.00 in
Snow Depth Not available.
UV 1.0 out of 12
Pollen 10.80 out of 12
Air Quality Not available.
Flu Activity Sporadic
METAR KAOO 042053Z AUTO 24012G21KT 10SM BKN090 27/06 A3015 RMK AO2 SLP202 T02720056 56013

More Conditions Fewer Conditions

Pressure 30.13 in
Visibility 10.0 miles
Clouds Mostly Cloudy 9000 ft
Heat Index 83 °F
Dew Point 42 °F
Humidity 21%
Rainfall 0.00 in
Snow Depth Not available.
UV 1.0 out of 12
Pollen 10.80 out of 12
Air Quality Not available.
Flu Activity Sporadic
METAR KAOO 042053Z AUTO 24012G21KT 10SM BKN090 27/06 A3015 RMK AO2 SLP202 T02720056 56013

More Conditions Fewer Conditions

Nepal has a long way to go to dig out and rebuild from a devastating earthquake. We have teamed up with several charities and organizations to make contributing to the relief effort as easy as possible.
How you can help: Portlight Strategies | Red Cross

10-Day Weather Forecast

Almanac

Astronomy

May. 04, 2015 Rise Set
Actual Time
Civil Twilight
Nautical Twilight
Astronomical Twilight
Moon
Length of Visible Light
Length of Day
Tomorrow will be .
, % of the Moon is Illuminated

Today's Extremes

State Highs State Lows

Community

WunderPhotos

Upload Photos

1,818,707 photos uploaded!

WunderBlogs® & News

Nearby

Air Quality

  Air Quality AQ Index Pollutant
Not available.

Snow Depth

Station Depth Elevation

Earthquake Activity

City Distance Mag. Time & Date
Minimum magnitude displayed is 2.5.

Coastal Water Temperatures

Place Temperature

Stations

Nearby Weather Stations

Station Location Temp. Windchill Dew Point Humidity Wind Precip. Elev Updated Type